createdAt,value
2018-03-06T00:02:07.378Z,99546.92
2018-03-06T00:04:33.835Z,99550.63
2018-03-06T00:07:00.019Z,99546.38
2018-03-06T00:09:26.229Z,99540.91
2018-03-06T00:11:52.399Z,99549.25
2018-03-06T00:14:18.625Z,99541.41
2018-03-06T00:16:44.851Z,99538.39
2018-03-06T00:19:11.307Z,99540.53
2018-03-06T00:21:37.486Z,99535.73
2018-03-06T00:24:03.767Z,99542.39
2018-03-06T00:26:29.965Z,99535.30
2018-03-06T00:28:56.176Z,99531.53
2018-03-06T00:31:22.755Z,99543.81
2018-03-06T00:33:48.928Z,99539.65
2018-03-06T00:36:15.418Z,99539.66
2018-03-06T00:38:41.630Z,99537.14
2018-03-06T00:41:08.077Z,99541.56
2018-03-06T00:43:34.310Z,99540.80
2018-03-06T00:46:00.734Z,99536.53
2018-03-06T00:48:26.918Z,99527.31
2018-03-06T00:50:53.157Z,99526.90
2018-03-06T00:53:19.328Z,99521.17
2018-03-06T00:55:45.799Z,99520.78
2018-03-06T00:58:12.299Z,99522.53
2018-03-06T01:00:38.497Z,99521.27
2018-03-06T01:03:05.065Z,99518.31
2018-03-06T01:05:31.263Z,99507.42
2018-03-06T01:07:57.821Z,99506.48
2018-03-06T01:10:24.047Z,99505.08
2018-03-06T01:12:50.241Z,99506.88
2018-03-06T01:15:16.454Z,99509.39
2018-03-06T01:17:42.668Z,99508.52
2018-03-06T01:20:08.938Z,99505.19
2018-03-06T01:22:35.200Z,99499.03
2018-03-06T01:25:01.500Z,99496.52
2018-03-06T01:27:27.702Z,99494.81
2018-03-06T01:29:53.963Z,99488.61
2018-03-06T01:32:20.191Z,99489.09
2018-03-06T01:34:46.387Z,99485.66
2018-03-06T01:37:12.621Z,99485.67
2018-03-06T01:39:38.895Z,99481.30
2018-03-06T01:42:05.109Z,99481.74
2018-03-06T01:44:31.302Z,99477.48
2018-03-06T01:46:57.616Z,99473.23
2018-03-06T01:49:23.860Z,99475.46
2018-03-06T01:51:57.219Z,99470.61
2018-03-06T01:54:23.731Z,99469.53
2018-03-06T01:56:49.930Z,99470.83
2018-03-06T01:59:16.496Z,99470.44
2018-03-06T02:01:42.678Z,99476.98
2018-03-06T02:04:08.892Z,99479.34
2018-03-06T02:06:35.324Z,99471.97
2018-03-06T02:09:01.572Z,99464.07
2018-03-06T02:11:27.779Z,99463.74
2018-03-06T02:13:53.990Z,99463.70
2018-03-06T02:16:20.200Z,99463.69
2018-03-06T02:18:46.398Z,99463.64
2018-03-06T02:21:12.963Z,99458.06
2018-03-06T02:23:39.495Z,99467.98
2018-03-06T02:26:05.701Z,99461.84
2018-03-06T02:28:32.256Z,99460.25
2018-03-06T02:30:58.470Z,99453.86
2018-03-06T02:33:25.023Z,99445.58
2018-03-06T02:35:51.248Z,99448.21
2018-03-06T02:38:17.503Z,99447.81
2018-03-06T02:40:43.679Z,99442.98
2018-03-06T02:43:09.882Z,99443.02
2018-03-06T02:45:36.213Z,99444.82
2018-03-06T02:48:02.421Z,99433.36
2018-03-06T02:50:28.926Z,99432.95
2018-03-06T02:52:55.158Z,99429.13
2018-03-06T02:55:21.387Z,99426.17
2018-03-06T02:57:47.574Z,99424.48
2018-03-06T03:00:14.049Z,99440.19
2018-03-06T03:02:40.577Z,99437.07
2018-03-06T03:05:06.776Z,99444.82
2018-03-06T03:07:32.975Z,99435.98
2018-03-06T03:09:59.191Z,99438.94
2018-03-06T03:12:25.421Z,99434.14
2018-03-06T03:14:51.656Z,99430.70
2018-03-06T03:17:17.921Z,99433.82
2018-03-06T03:19:44.383Z,99431.25
2018-03-06T03:22:10.628Z,99429.55
2018-03-06T03:24:36.832Z,99434.30
2018-03-06T03:27:03.078Z,99435.22
2018-03-06T03:29:29.570Z,99427.16
2018-03-06T03:32:03.205Z,99429.83
2018-03-06T03:34:29.741Z,99424.22
2018-03-06T03:36:55.956Z,99424.75
2018-03-06T03:39:22.174Z,99424.75
2018-03-06T03:41:48.728Z,99428.52
2018-03-06T03:44:14.929Z,99430.59
2018-03-06T03:46:41.140Z,99424.16
2018-03-06T03:49:07.384Z,99425.53
2018-03-06T03:51:33.602Z,99424.42
2018-03-06T03:53:59.843Z,99418.33
2018-03-06T03:56:26.304Z,99424.55
2018-03-06T03:58:52.505Z,99418.21
2018-03-06T04:01:18.746Z,99420.84
2018-03-06T04:03:45.018Z,99412.05
2018-03-06T04:06:11.523Z,99406.81
2018-03-06T04:08:37.772Z,99409.38
2018-03-06T04:11:04.062Z,99407.59
2018-03-06T04:13:30.265Z,99422.42
2018-03-06T04:15:56.463Z,99412.77
2018-03-06T04:18:22.709Z,99410.03
2018-03-06T04:20:48.925Z,99410.91
2018-03-06T04:23:15.162Z,99414.45
2018-03-06T04:25:41.400Z,99419.63
2018-03-06T04:28:07.663Z,99413.97
2018-03-06T04:30:33.878Z,99411.45
2018-03-06T04:33:00.127Z,99416.57
2018-03-06T04:35:26.344Z,99417.06
2018-03-06T04:37:52.695Z,99422.73
2018-03-06T04:40:18.870Z,99419.19
2018-03-06T04:42:45.462Z,99416.25
2018-03-06T04:45:11.919Z,99407.63
2018-03-06T04:47:38.150Z,99415.00
2018-03-06T04:50:04.752Z,99414.28
2018-03-06T04:52:30.949Z,99412.59
2018-03-06T04:54:57.212Z,99415.11
2018-03-06T04:57:23.499Z,99406.34
2018-03-06T04:59:49.710Z,99407.20
2018-03-06T05:02:15.920Z,99406.77
2018-03-06T05:04:42.141Z,99398.15
2018-03-06T05:07:08.308Z,99410.42
2018-03-06T05:09:34.563Z,99406.93
2018-03-06T05:12:00.738Z,99410.52
2018-03-06T05:14:26.925Z,99407.55
2018-03-06T05:16:53.167Z,99418.08
2018-03-06T05:19:19.374Z,99411.63
2018-03-06T05:21:45.673Z,99415.17
2018-03-06T05:24:12.259Z,99417.89
2018-03-06T05:26:38.792Z,99416.11
2018-03-06T05:29:04.978Z,99416.91
2018-03-06T05:31:31.186Z,99415.88
2018-03-06T05:33:57.636Z,99413.48
2018-03-06T05:36:23.883Z,99415.16
2018-03-06T05:38:50.344Z,99420.94
2018-03-06T05:41:16.562Z,99414.97
2018-03-06T05:43:42.806Z,99414.24
2018-03-06T05:46:08.987Z,99419.54
2018-03-06T05:48:35.507Z,99413.53
2018-03-06T05:51:02.707Z,99414.52
2018-03-06T05:53:28.898Z,99412.81
2018-03-06T05:55:55.120Z,99408.04
2018-03-06T05:58:21.285Z,99413.84
2018-03-06T06:00:47.560Z,99413.47
2018-03-06T06:03:13.735Z,99414.08
2018-03-06T06:05:39.977Z,99415.61
2018-03-06T06:08:06.213Z,99413.48
2018-03-06T06:10:33.373Z,99413.55
2018-03-06T06:12:59.891Z,99417.94
2018-03-06T06:15:26.175Z,99412.81
2018-03-06T06:17:52.444Z,99421.60
2018-03-06T06:20:18.582Z,99413.37
2018-03-06T06:22:44.745Z,99418.82
2018-03-06T06:25:10.965Z,99414.63
2018-03-06T06:27:37.150Z,99420.51
2018-03-06T06:30:03.350Z,99417.45
2018-03-06T06:32:31.452Z,99417.17
2018-03-06T06:34:57.658Z,99421.81
2018-03-06T06:37:24.328Z,99421.38
2018-03-06T06:39:50.532Z,99424.80
2018-03-06T06:42:16.826Z,99420.88
2018-03-06T06:44:43.314Z,99419.94
2018-03-06T06:47:09.613Z,99418.95
2018-03-06T06:49:35.847Z,99419.17
2018-03-06T06:52:02.024Z,99425.94
2018-03-06T06:54:28.635Z,99422.34
2018-03-06T06:56:54.829Z,99431.13
2018-03-06T06:59:21.030Z,99426.36
2018-03-06T07:01:47.306Z,99430.24
2018-03-06T07:04:13.488Z,99429.58
2018-03-06T07:06:39.727Z,99435.03
2018-03-06T07:09:05.908Z,99436.94
2018-03-06T07:11:32.091Z,99436.78
2018-03-06T07:13:58.278Z,99434.40
2018-03-06T07:16:24.472Z,99436.41
2018-03-06T07:18:51.026Z,99442.15
2018-03-06T07:21:17.212Z,99444.92
2018-03-06T07:23:43.624Z,99444.83
2018-03-06T07:26:09.808Z,99450.33
2018-03-06T07:28:36.129Z,99447.71
2018-03-06T07:31:02.285Z,99441.77
2018-03-06T07:33:28.484Z,99446.79
2018-03-06T07:35:54.679Z,99446.41
2018-03-06T07:38:20.891Z,99448.25
2018-03-06T07:40:47.095Z,99449.23
2018-03-06T07:43:13.618Z,99449.73
2018-03-06T07:45:39.843Z,99450.16
2018-03-06T07:48:06.120Z,99445.03
2018-03-06T07:50:32.278Z,99441.49
2018-03-06T07:52:58.444Z,99439.27
2018-03-06T07:55:24.643Z,99444.13
2018-03-06T07:57:50.833Z,99446.34
2018-03-06T08:00:17.054Z,99446.73
2018-03-06T08:02:43.226Z,99440.62
2018-03-06T08:05:09.637Z,99446.63
2018-03-06T08:07:35.823Z,99434.78
2018-03-06T08:10:02.123Z,99434.34
2018-03-06T08:12:28.308Z,99439.47
2018-03-06T08:14:54.475Z,99434.68
2018-03-06T08:17:21.015Z,99443.41
2018-03-06T08:19:47.220Z,99441.28
2018-03-06T08:22:13.459Z,99437.34
2018-03-06T08:24:39.631Z,99439.96
2018-03-06T08:27:05.798Z,99440.84
2018-03-06T08:29:32.032Z,99440.39
2018-03-06T08:31:58.221Z,99447.00
2018-03-06T08:34:24.417Z,99443.41
2018-03-06T08:36:50.587Z,99443.02
2018-03-06T08:39:16.823Z,99442.84
2018-03-06T08:41:43.027Z,99441.88
2018-03-06T08:44:09.235Z,99439.25
2018-03-06T08:46:35.460Z,99441.05
2018-03-06T08:49:01.672Z,99441.05
2018-03-06T08:51:27.905Z,99437.02
2018-03-06T08:53:54.053Z,99435.76
2018-03-06T08:56:20.558Z,99431.02
2018-03-06T08:58:47.090Z,99435.17
2018-03-06T09:01:13.312Z,99431.61
2018-03-06T09:03:39.555Z,99431.52
2018-03-06T09:06:05.705Z,99432.38
2018-03-06T09:08:31.901Z,99436.52
2018-03-06T09:10:58.099Z,99433.41
2018-03-06T09:13:24.316Z,99429.91
2018-03-06T09:15:50.796Z,99433.28
2018-03-06T09:18:16.970Z,99432.44
2018-03-06T09:20:43.213Z,99433.45
2018-03-06T09:23:09.403Z,99432.20
2018-03-06T09:25:35.569Z,99424.52
2018-03-06T09:28:02.134Z,99437.64
2018-03-06T09:30:28.340Z,99439.77
2018-03-06T09:32:54.797Z,99439.77
2018-03-06T09:35:21.019Z,99436.11
2018-03-06T09:37:47.463Z,99435.60
2018-03-06T09:40:13.636Z,99438.66
2018-03-06T09:42:39.796Z,99434.30
2018-03-06T09:45:05.983Z,99432.12
2018-03-06T09:47:32.194Z,99425.89
2018-03-06T09:49:58.702Z,99427.52
2018-03-06T09:52:24.917Z,99426.20
2018-03-06T09:54:51.132Z,99425.77
2018-03-06T09:57:17.318Z,99429.65
2018-03-06T09:59:43.491Z,99423.92
2018-03-06T10:02:09.728Z,99424.34
2018-03-06T10:04:35.918Z,99430.67
2018-03-06T10:07:02.091Z,99422.77
2018-03-06T10:09:28.550Z,99417.00
2018-03-06T10:11:54.742Z,99416.11
2018-03-06T10:14:20.901Z,99416.44
2018-03-06T10:16:47.075Z,99420.74
2018-03-06T10:19:13.264Z,99421.06
2018-03-06T10:21:39.493Z,99424.88
2018-03-06T10:24:05.681Z,99421.37
2018-03-06T10:26:31.863Z,99419.13
2018-03-06T10:28:58.153Z,99419.95
2018-03-06T10:31:24.353Z,99412.91
2018-03-06T10:33:50.615Z,99410.95
2018-03-06T10:36:16.891Z,99415.45
2018-03-06T10:38:43.143Z,99417.04
2018-03-06T10:41:09.322Z,99417.02
2018-03-06T10:43:35.508Z,99406.45
2018-03-06T10:46:01.705Z,99409.86
2018-03-06T10:48:27.912Z,99407.52
2018-03-06T10:50:54.069Z,99405.70
2018-03-06T10:53:20.275Z,99401.77
2018-03-06T10:55:46.486Z,99397.84
2018-03-06T10:58:12.652Z,99395.95
2018-03-06T11:00:44.786Z,99392.41
2018-03-06T11:03:10.945Z,99391.53
2018-03-06T11:05:37.152Z,99390.48
2018-03-06T11:08:03.318Z,99378.49
2018-03-06T11:10:29.543Z,99373.07
2018-03-06T11:12:55.828Z,99368.02
2018-03-06T11:15:22.066Z,99366.45
2018-03-06T11:17:48.283Z,99364.91
2018-03-06T11:20:14.490Z,99366.21
2018-03-06T11:22:40.736Z,99361.78
2018-03-06T11:25:06.920Z,99359.78
2018-03-06T11:27:33.083Z,99355.22
2018-03-06T11:29:59.319Z,99354.27
2018-03-06T11:32:25.507Z,99348.83
2018-03-06T11:34:51.692Z,99347.83
2018-03-06T11:37:17.975Z,99347.31
2018-03-06T11:39:44.176Z,99348.50
2018-03-06T11:42:10.358Z,99339.19
2018-03-06T11:44:36.571Z,99339.84
2018-03-06T11:47:02.774Z,99341.65
2018-03-06T11:49:29.267Z,99330.60
2018-03-06T11:51:55.443Z,99331.72
2018-03-06T11:54:21.968Z,99327.58
2018-03-06T11:56:48.235Z,99324.48
2018-03-06T11:59:14.394Z,99330.92
2018-03-06T12:01:40.592Z,99322.36
2018-03-06T12:04:07.179Z,99320.02
2018-03-06T12:06:33.368Z,99316.03
2018-03-06T12:08:59.777Z,99321.28
2018-03-06T12:11:26.054Z,99320.02
2018-03-06T12:13:52.265Z,99319.27
2018-03-06T12:16:18.463Z,99312.20
2018-03-06T12:18:44.707Z,99303.42
2018-03-06T12:21:11.166Z,99305.87
2018-03-06T12:23:37.336Z,99303.88
2018-03-06T12:26:03.953Z,99299.74
2018-03-06T12:28:30.140Z,99300.48
2018-03-06T12:30:56.356Z,99303.81
2018-03-06T12:33:22.587Z,99304.09
2018-03-06T12:35:48.744Z,99300.30
2018-03-06T12:38:15.192Z,99298.28
2018-03-06T12:40:41.738Z,99295.91
2018-03-06T12:43:08.274Z,99296.61
2018-03-06T12:45:34.502Z,99301.08
2018-03-06T12:48:00.703Z,99295.38
2018-03-06T12:50:26.914Z,99295.55
2018-03-06T12:52:53.165Z,99296.41
2018-03-06T12:55:19.611Z,99297.73
2018-03-06T12:57:46.054Z,99291.17
2018-03-06T13:00:12.505Z,99290.66
2018-03-06T13:02:38.674Z,99283.95
2018-03-06T13:05:04.893Z,99286.70
2018-03-06T13:07:31.370Z,99283.92
2018-03-06T13:09:57.546Z,99281.56
2018-03-06T13:12:23.794Z,99282.45
2018-03-06T13:14:49.999Z,99284.59
2018-03-06T13:17:16.158Z,99281.38
2018-03-06T13:19:42.395Z,99280.77
2018-03-06T13:22:08.896Z,99283.29
2018-03-06T13:24:35.387Z,99282.27
2018-03-06T13:27:01.917Z,99287.45
2018-03-06T13:29:28.193Z,99278.17
2018-03-06T13:31:54.441Z,99277.08
2018-03-06T13:34:20.667Z,99274.67
2018-03-06T13:36:46.884Z,99278.05
2018-03-06T13:39:13.116Z,99275.23
2018-03-06T13:41:39.593Z,99274.16
2018-03-06T13:44:06.124Z,99280.00
2018-03-06T13:46:32.350Z,99269.33
2018-03-06T13:48:58.538Z,99271.38
2018-03-06T13:51:24.734Z,99268.07
2018-03-06T13:53:50.950Z,99262.08
2018-03-06T13:56:17.166Z,99258.80
2018-03-06T13:58:43.416Z,99260.92
2018-03-06T14:01:09.636Z,99256.03
2018-03-06T14:03:35.861Z,99255.13
2018-03-06T14:06:02.076Z,99254.91
2018-03-06T14:08:28.252Z,99253.23
2018-03-06T14:10:54.440Z,99257.84
2018-03-06T14:13:20.678Z,99251.50
2018-03-06T14:15:47.188Z,99252.14
2018-03-06T14:18:13.731Z,99249.13
2018-03-06T14:20:39.938Z,99245.01
2018-03-06T14:23:06.210Z,99253.88
2018-03-06T14:25:39.357Z,99245.73
2018-03-06T14:28:05.566Z,99244.19
2018-03-06T14:30:31.787Z,99241.39
2018-03-06T14:32:58.062Z,99244.22
2018-03-06T14:35:24.329Z,99241.91
2018-03-06T14:37:50.519Z,99245.61
2018-03-06T14:40:17.016Z,99249.42
2018-03-06T14:42:43.240Z,99251.89
2018-03-06T14:45:09.463Z,99248.43
2018-03-06T14:47:35.677Z,99244.62
2018-03-06T14:50:01.864Z,99246.55
2018-03-06T14:52:28.105Z,99246.45
2018-03-06T14:54:54.285Z,99244.87
2018-03-06T14:57:20.465Z,99247.41
2018-03-06T14:59:46.722Z,99237.54
2018-03-06T15:02:12.880Z,99238.34
2018-03-06T15:04:39.059Z,99236.56
2018-03-06T15:07:05.299Z,99239.05
2018-03-06T15:09:31.482Z,99246.25
2018-03-06T15:11:57.737Z,99242.78
2018-03-06T15:14:24.006Z,99248.99
2018-03-06T15:16:50.172Z,99250.78
2018-03-06T15:19:16.342Z,99251.42
2018-03-06T15:21:42.537Z,99247.68
2018-03-06T15:24:08.706Z,99246.36
2018-03-06T15:26:34.914Z,99240.25
2018-03-06T15:29:01.120Z,99246.67
2018-03-06T15:31:27.377Z,99242.30
2018-03-06T15:33:53.659Z,99241.41
2018-03-06T15:36:19.839Z,99239.86
2018-03-06T15:38:46.067Z,99246.98
2018-03-06T15:41:12.245Z,99242.83
2018-03-06T15:43:38.417Z,99242.03
2018-03-06T15:46:04.674Z,99247.50
2018-03-06T15:48:30.868Z,99245.30
2018-03-06T15:50:57.070Z,99239.84
2018-03-06T15:53:23.278Z,99241.84
2018-03-06T15:55:49.464Z,99249.39
2018-03-06T15:58:16.045Z,99247.39
2018-03-06T16:00:42.218Z,99251.30
2018-03-06T16:03:08.393Z,99251.09
2018-03-06T16:05:34.593Z,99261.41
2018-03-06T16:08:01.057Z,99263.81
2018-03-06T16:10:27.368Z,99261.14
2018-03-06T16:12:53.995Z,99264.70
2018-03-06T16:15:20.159Z,99259.98
2018-03-06T16:17:46.365Z,99259.61
2018-03-06T16:20:12.565Z,99259.27
2018-03-06T16:22:38.789Z,99256.34
2018-03-06T16:25:04.961Z,99266.03
2018-03-06T16:27:31.190Z,99269.97
2018-03-06T16:29:57.621Z,99269.91
2018-03-06T16:32:23.840Z,99271.23
2018-03-06T16:34:50.112Z,99270.77
2018-03-06T16:37:16.305Z,99277.21
2018-03-06T16:39:42.841Z,99278.02
2018-03-06T16:42:09.051Z,99280.53
2018-03-06T16:44:35.249Z,99282.58
2018-03-06T16:47:01.427Z,99283.80
2018-03-06T16:49:27.955Z,99281.06
2018-03-06T16:51:54.201Z,99285.67
2018-03-06T16:54:20.376Z,99289.56
2018-03-06T16:56:46.641Z,99286.33
2018-03-06T16:59:12.861Z,99287.41
2018-03-06T17:01:39.059Z,99287.17
2018-03-06T17:04:05.631Z,99293.13
2018-03-06T17:06:31.818Z,99299.91
2018-03-06T17:08:58.007Z,99300.11
2018-03-06T17:11:24.223Z,99302.05
2018-03-06T17:13:50.418Z,99302.80
2018-03-06T17:16:16.646Z,99306.91
2018-03-06T17:18:43.148Z,99302.92
2018-03-06T17:21:09.386Z,99306.72
2018-03-06T17:23:35.571Z,99309.85
2018-03-06T17:26:01.757Z,99316.36
2018-03-06T17:28:27.967Z,99316.41
2018-03-06T17:30:54.177Z,99314.29
2018-03-06T17:33:20.342Z,99314.67
2018-03-06T17:35:46.567Z,99313.48
2018-03-06T17:38:12.784Z,99318.80
2018-03-06T17:40:38.980Z,99322.30
2018-03-06T17:43:05.193Z,99322.73
2018-03-06T17:45:31.392Z,99322.71
2018-03-06T17:47:57.947Z,99322.71
2018-03-06T17:50:24.110Z,99320.84
2018-03-06T17:52:50.552Z,99320.48
2018-03-06T17:55:16.739Z,99315.45
2018-03-06T17:57:42.913Z,99322.47
2018-03-06T18:00:09.151Z,99318.95
2018-03-06T18:02:35.402Z,99325.72
2018-03-06T18:05:01.582Z,99326.16
2018-03-06T18:07:27.784Z,99325.03
2018-03-06T18:09:53.964Z,99329.59
2018-03-06T18:12:20.430Z,99329.03
2018-03-06T18:14:46.617Z,99326.23
2018-03-06T18:17:13.094Z,99323.83
2018-03-06T18:19:39.933Z,99324.92
2018-03-06T18:22:06.116Z,99321.94
2018-03-06T18:24:32.293Z,99337.79
2018-03-06T18:26:58.500Z,99330.48
2018-03-06T18:29:24.920Z,99332.31
2018-03-06T18:31:51.139Z,99330.26
2018-03-06T18:34:17.416Z,99331.30
2018-03-06T18:36:43.632Z,99330.11
2018-03-06T18:39:09.812Z,99332.38
2018-03-06T18:41:36.012Z,99330.70
2018-03-06T18:44:02.195Z,99328.19
2018-03-06T18:46:28.641Z,99330.87
2018-03-06T18:48:54.882Z,99331.42
2018-03-06T18:51:21.099Z,99327.56
2018-03-06T18:53:47.266Z,99331.06
2018-03-06T18:56:13.465Z,99326.00
2018-03-06T18:58:39.695Z,99331.37
2018-03-06T19:04:19.165Z,99328.25
2018-03-06T19:09:43.418Z,99330.05
2018-03-06T19:12:09.829Z,99328.75
2018-03-06T19:14:36.315Z,99331.29
2018-03-06T19:17:02.876Z,99323.88
2018-03-06T19:19:29.029Z,99330.30
2018-03-06T19:21:55.259Z,99332.11
2018-03-06T19:24:21.742Z,99329.74
2018-03-06T19:26:55.131Z,99329.80
2018-03-06T19:29:21.307Z,99330.87
2018-03-06T19:31:47.794Z,99326.38
2018-03-06T19:34:14.019Z,99340.56
2018-03-06T19:36:40.193Z,99336.31
2018-03-06T19:39:06.357Z,99337.80
2018-03-06T19:41:32.667Z,99333.55
2018-03-06T19:43:58.894Z,99338.87
2018-03-06T19:46:25.049Z,99339.92
2018-03-06T19:48:51.246Z,99342.54
2018-03-06T19:51:17.423Z,99334.31
2018-03-06T19:53:43.588Z,99337.36
2018-03-06T19:56:09.768Z,99332.63
2018-03-06T19:58:35.930Z,99332.75
2018-03-06T20:01:02.244Z,99334.48
2018-03-06T20:03:28.412Z,99336.55
2018-03-06T20:05:54.649Z,99340.98
2018-03-06T20:08:20.806Z,99338.86
2018-03-06T20:10:46.985Z,99345.41
2018-03-06T20:13:13.181Z,99343.80
2018-03-06T20:15:39.376Z,99345.55
2018-03-06T20:18:05.540Z,99345.92
2018-03-06T20:20:31.675Z,99342.80
2018-03-06T20:22:58.178Z,99345.09
2018-03-06T20:25:30.553Z,99356.89
2018-03-06T20:27:56.751Z,99351.58
2018-03-06T20:30:29.359Z,99348.55
2018-03-06T20:33:01.697Z,99355.03
2018-03-06T20:35:27.915Z,99357.58
2018-03-06T20:37:54.095Z,99356.66
2018-03-06T20:40:26.288Z,99354.90
2018-03-06T20:42:52.429Z,99359.58
2018-03-06T20:45:18.622Z,99356.52
2018-03-06T20:47:44.791Z,99363.19
2018-03-06T20:50:10.988Z,99355.52
2018-03-06T20:55:39.327Z,99358.58
2018-03-06T20:58:05.472Z,99361.25
2018-03-06T21:00:31.914Z,99360.09
2018-03-06T21:02:58.126Z,99359.52
2018-03-06T21:05:24.281Z,99362.13
2018-03-06T21:07:50.695Z,99362.56
2018-03-06T21:10:17.135Z,99360.51
2018-03-06T21:12:43.362Z,99358.78
2018-03-06T21:15:09.541Z,99361.02
2018-03-06T21:17:35.696Z,99362.38
2018-03-06T21:20:01.899Z,99359.39
2018-03-06T21:22:28.380Z,99356.26
2018-03-06T21:24:54.584Z,99360.33
2018-03-06T21:27:20.745Z,99350.03
2018-03-06T21:29:46.930Z,99350.35
2018-03-06T21:32:13.086Z,99357.22
2018-03-06T21:34:39.287Z,99355.08
2018-03-06T21:37:05.479Z,99357.70
2018-03-06T21:39:31.668Z,99364.66
2018-03-06T21:41:57.853Z,99357.29
2018-03-06T21:44:24.032Z,99355.98
2018-03-06T21:46:50.204Z,99356.79
2018-03-06T21:49:16.683Z,99354.60
2018-03-06T21:51:42.831Z,99355.89
2018-03-06T21:54:09.001Z,99350.28
2018-03-06T21:56:35.182Z,99350.28
2018-03-06T21:59:01.384Z,99354.59
2018-03-06T22:01:27.560Z,99361.20
2018-03-06T22:03:53.734Z,99351.55
2018-03-06T22:06:19.934Z,99358.78
2018-03-06T22:08:46.119Z,99358.65
2018-03-06T22:11:12.304Z,99360.39
2018-03-06T22:13:38.759Z,99361.84
2018-03-06T22:16:04.976Z,99366.27
2018-03-06T22:18:31.464Z,99365.88
2018-03-06T22:20:57.617Z,99367.20
2018-03-06T22:23:23.844Z,99367.70
2018-03-06T22:25:50.010Z,99364.77
2018-03-06T22:28:16.188Z,99366.70
2018-03-06T22:30:42.415Z,99364.70
2018-03-06T22:33:08.581Z,99367.56
2018-03-06T22:35:34.756Z,99359.50
2018-03-06T22:38:01.062Z,99372.72
2018-03-06T22:40:27.316Z,99366.24
2018-03-06T22:42:53.506Z,99372.03
2018-03-06T22:45:19.738Z,99365.11
2018-03-06T22:47:46.262Z,99366.85
2018-03-06T22:50:12.430Z,99362.55
2018-03-06T22:52:38.626Z,99366.47
2018-03-06T22:55:04.814Z,99366.59
2018-03-06T22:57:31.004Z,99360.11
2018-03-06T22:59:57.239Z,99361.41
2018-03-06T23:02:23.388Z,99361.97
2018-03-06T23:04:49.777Z,99362.30
2018-03-06T23:07:15.970Z,99367.95
2018-03-06T23:09:42.252Z,99365.42
2018-03-06T23:12:08.471Z,99360.61
2018-03-06T23:14:34.661Z,99365.72
2018-03-06T23:17:01.202Z,99366.09
2018-03-06T23:19:27.351Z,99362.97
2018-03-06T23:21:53.562Z,99363.47
2018-03-06T23:24:19.723Z,99359.11
2018-03-06T23:26:45.895Z,99364.41
2018-03-06T23:29:12.093Z,99363.70
2018-03-06T23:31:38.273Z,99366.84
2018-03-06T23:34:04.594Z,99362.91
2018-03-06T23:36:30.732Z,99362.91
2018-03-06T23:38:56.929Z,99366.33
2018-03-06T23:41:23.137Z,99367.66
2018-03-06T23:43:49.293Z,99368.13
2018-03-06T23:46:15.737Z,99368.53
2018-03-06T23:48:42.270Z,99371.15
2018-03-06T23:51:08.518Z,99368.64
2018-03-06T23:53:34.702Z,99372.17
2018-03-06T23:56:00.910Z,99368.47
2018-03-06T23:58:27.061Z,99374.33
